sensor_id;sensor_type;location;lat;lon;timestamp;temperature;humidity
35603;DHT22;21725;50.836;4.368;2023-05-07T00:02:29;19.90;96.50
35603;DHT22;21725;50.836;4.368;2023-05-07T00:05:30;19.70;96.40
35603;DHT22;21725;50.836;4.368;2023-05-07T00:08:33;19.90;96.50
35603;DHT22;21725;50.836;4.368;2023-05-07T00:11:34;20.00;96.20
35603;DHT22;21725;50.836;4.368;2023-05-07T00:14:35;20.10;96.10
35603;DHT22;21725;50.836;4.368;2023-05-07T00:17:36;20.00;96.20
35603;DHT22;21725;50.836;4.368;2023-05-07T00:20:37;19.90;96.30
35603;DHT22;21725;50.836;4.368;2023-05-07T00:23:38;19.90;96.50
35603;DHT22;21725;50.836;4.368;2023-05-07T00:26:39;19.80;96.50
35603;DHT22;21725;50.836;4.368;2023-05-07T00:29:39;19.90;96.60
35603;DHT22;21725;50.836;4.368;2023-05-07T00:32:40;20.00;96.30
35603;DHT22;21725;50.836;4.368;2023-05-07T00:35:42;20.10;96.20
35603;DHT22;21725;50.836;4.368;2023-05-07T00:38:43;20.20;96.00
35603;DHT22;21725;50.836;4.368;2023-05-07T00:41:43;20.20;95.90
35603;DHT22;21725;50.836;4.368;2023-05-07T00:44:44;20.10;96.10
35603;DHT22;21725;50.836;4.368;2023-05-07T00:47:45;20.10;96.10
35603;DHT22;21725;50.836;4.368;2023-05-07T00:50:46;20.20;96.10
35603;DHT22;21725;50.836;4.368;2023-05-07T00:53:48;20.20;95.90
35603;DHT22;21725;50.836;4.368;2023-05-07T00:56:49;20.30;95.90
35603;DHT22;21725;50.836;4.368;2023-05-07T00:59:51;20.20;95.90
35603;DHT22;21725;50.836;4.368;2023-05-07T01:02:52;20.10;96.00
35603;DHT22;21725;50.836;4.368;2023-05-07T01:05:57;20.20;95.90
35603;DHT22;21725;50.836;4.368;2023-05-07T01:09:01;20.10;96.10
35603;DHT22;21725;50.836;4.368;2023-05-07T01:12:46;20.30;96.00
35603;DHT22;21725;50.836;4.368;2023-05-07T01:19:48;20.30;95.80
35603;DHT22;21725;50.836;4.368;2023-05-07T01:31:02;20.20;95.90
35603;DHT22;21725;50.836;4.368;2023-05-07T02:01:55;19.80;95.90
35603;DHT22;21725;50.836;4.368;2023-05-07T02:05:09;19.70;95.90
35603;DHT22;21725;50.836;4.368;2023-05-07T02:16:18;19.40;96.20
35603;DHT22;21725;50.836;4.368;2023-05-07T02:19:48;19.50;96.20
35603;DHT22;21725;50.836;4.368;2023-05-07T02:22:59;19.40;96.20
35603;DHT22;21725;50.836;4.368;2023-05-07T02:26:11;19.60;96.10
35603;DHT22;21725;50.836;4.368;2023-05-07T02:33:25;19.60;95.90
35603;DHT22;21725;50.836;4.368;2023-05-07T02:37:11;19.50;95.90
35603;DHT22;21725;50.836;4.368;2023-05-07T02:40:35;19.50;95.90
35603;DHT22;21725;50.836;4.368;2023-05-07T02:43:57;19.20;95.80
35603;DHT22;21725;50.836;4.368;2023-05-07T02:47:32;19.40;96.00
35603;DHT22;21725;50.836;4.368;2023-05-07T02:54:40;19.50;95.80
35603;DHT22;21725;50.836;4.368;2023-05-07T02:58:03;19.50;95.90
35603;DHT22;21725;50.836;4.368;2023-05-07T03:08:31;19.60;95.90
35603;DHT22;21725;50.836;4.368;2023-05-07T03:11:45;19.50;95.70
35603;DHT22;21725;50.836;4.368;2023-05-07T03:15:14;19.50;95.70
35603;DHT22;21725;50.836;4.368;2023-05-07T03:21:57;19.50;95.60
35603;DHT22;21725;50.836;4.368;2023-05-07T03:25:20;19.90;95.70
35603;DHT22;21725;50.836;4.368;2023-05-07T03:28:53;19.50;96.00
35603;DHT22;21725;50.836;4.368;2023-05-07T03:32:38;19.30;96.10
35603;DHT22;21725;50.836;4.368;2023-05-07T03:36:14;19.30;96.20
35603;DHT22;21725;50.836;4.368;2023-05-07T03:39:53;19.50;96.40
35603;DHT22;21725;50.836;4.368;2023-05-07T03:43:29;19.30;96.30
35603;DHT22;21725;50.836;4.368;2023-05-07T03:47:03;19.10;96.40
35603;DHT22;21725;50.836;4.368;2023-05-07T03:50:30;19.30;96.50
35603;DHT22;21725;50.836;4.368;2023-05-07T03:54:10;19.40;96.50
35603;DHT22;21725;50.836;4.368;2023-05-07T03:57:41;19.60;96.40
35603;DHT22;21725;50.836;4.368;2023-05-07T04:01:09;19.50;96.40
35603;DHT22;21725;50.836;4.368;2023-05-07T04:04:55;19.50;96.30
35603;DHT22;21725;50.836;4.368;2023-05-07T04:15:35;19.60;96.00
35603;DHT22;21725;50.836;4.368;2023-05-07T04:19:21;19.70;96.00
35603;DHT22;21725;50.836;4.368;2023-05-07T04:22:38;19.80;95.90
35603;DHT22;21725;50.836;4.368;2023-05-07T04:25:59;19.90;95.70
35603;DHT22;21725;50.836;4.368;2023-05-07T04:29:12;19.90;95.50
35603;DHT22;21725;50.836;4.368;2023-05-07T04:32:43;20.00;95.40
35603;DHT22;21725;50.836;4.368;2023-05-07T04:36:01;20.10;95.30
35603;DHT22;21725;50.836;4.368;2023-05-07T04:39:24;20.10;95.20
35603;DHT22;21725;50.836;4.368;2023-05-07T04:46:23;20.20;94.80
35603;DHT22;21725;50.836;4.368;2023-05-07T04:49:38;20.20;94.80
35603;DHT22;21725;50.836;4.368;2023-05-07T04:52:51;20.20;94.80
35603;DHT22;21725;50.836;4.368;2023-05-07T04:56:28;20.20;94.90
35603;DHT22;21725;50.836;4.368;2023-05-07T04:59:41;20.30;94.90
35603;DHT22;21725;50.836;4.368;2023-05-07T05:03:25;20.30;94.60
35603;DHT22;21725;50.836;4.368;2023-05-07T05:06:52;20.40;94.60
35603;DHT22;21725;50.836;4.368;2023-05-07T05:13:56;20.60;94.70
35603;DHT22;21725;50.836;4.368;2023-05-07T05:17:41;20.70;94.50
35603;DHT22;21725;50.836;4.368;2023-05-07T05:21:24;20.80;94.40
35603;DHT22;21725;50.836;4.368;2023-05-07T05:25:05;20.60;94.20
35603;DHT22;21725;50.836;4.368;2023-05-07T05:28:32;20.70;94.10
35603;DHT22;21725;50.836;4.368;2023-05-07T05:32:10;21.10;93.80
35603;DHT22;21725;50.836;4.368;2023-05-07T05:35:37;21.20;93.60
35603;DHT22;21725;50.836;4.368;2023-05-07T05:39:07;21.10;93.90
35603;DHT22;21725;50.836;4.368;2023-05-07T05:42:33;21.30;93.70
35603;DHT22;21725;50.836;4.368;2023-05-07T05:45:42;21.10;93.60
35603;DHT22;21725;50.836;4.368;2023-05-07T05:49:24;21.30;93.30
35603;DHT22;21725;50.836;4.368;2023-05-07T05:56:38;21.30;93.20
35603;DHT22;21725;50.836;4.368;2023-05-07T05:59:55;21.30;93.20
35603;DHT22;21725;50.836;4.368;2023-05-07T06:11:08;20.30;95.00
35603;DHT22;21725;50.836;4.368;2023-05-07T06:14:18;20.00;95.60
35603;DHT22;21725;50.836;4.368;2023-05-07T06:17:30;19.90;95.80
35603;DHT22;21725;50.836;4.368;2023-05-07T06:20:36;19.80;96.00
35603;DHT22;21725;50.836;4.368;2023-05-07T06:23:55;20.00;96.30
35603;DHT22;21725;50.836;4.368;2023-05-07T06:27:04;19.70;96.60
35603;DHT22;21725;50.836;4.368;2023-05-07T06:30:31;19.70;96.70
35603;DHT22;21725;50.836;4.368;2023-05-07T06:37:16;19.90;96.80
35603;DHT22;21725;50.836;4.368;2023-05-07T06:41:09;20.00;96.90
35603;DHT22;21725;50.836;4.368;2023-05-07T06:44:31;19.90;97.00
35603;DHT22;21725;50.836;4.368;2023-05-07T06:47:49;20.00;97.10
35603;DHT22;21725;50.836;4.368;2023-05-07T06:51:35;19.60;97.30
35603;DHT22;21725;50.836;4.368;2023-05-07T06:54:54;20.20;97.90
35603;DHT22;21725;50.836;4.368;2023-05-07T07:13:33;19.80;99.40
35603;DHT22;21725;50.836;4.368;2023-05-07T07:16:58;19.90;99.30
35603;DHT22;21725;50.836;4.368;2023-05-07T07:20:37;19.90;99.40
35603;DHT22;21725;50.836;4.368;2023-05-07T07:23:40;19.80;99.80
35603;DHT22;21725;50.836;4.368;2023-05-07T07:26:46;19.70;99.90
35603;DHT22;21725;50.836;4.368;2023-05-07T07:29:50;19.70;99.90
35603;DHT22;21725;50.836;4.368;2023-05-07T07:33:00;19.80;99.90
35603;DHT22;21725;50.836;4.368;2023-05-07T07:36:13;19.80;99.90
35603;DHT22;21725;50.836;4.368;2023-05-07T07:39:41;19.70;99.90
35603;DHT22;21725;50.836;4.368;2023-05-07T07:43:25;19.90;99.90
35603;DHT22;21725;50.836;4.368;2023-05-07T07:46:37;20.00;99.90
35603;DHT22;21725;50.836;4.368;2023-05-07T07:49:38;19.90;99.90
35603;DHT22;21725;50.836;4.368;2023-05-07T07:52:42;20.10;99.90
35603;DHT22;21725;50.836;4.368;2023-05-07T07:55:55;20.00;99.90
35603;DHT22;21725;50.836;4.368;2023-05-07T08:02:54;20.10;99.90
35603;DHT22;21725;50.836;4.368;2023-05-07T08:06:19;20.50;99.90
35603;DHT22;21725;50.836;4.368;2023-05-07T08:13:37;20.30;99.90
35603;DHT22;21725;50.836;4.368;2023-05-07T08:17:33;20.60;99.90
35603;DHT22;21725;50.836;4.368;2023-05-07T08:20:56;20.20;99.90
35603;DHT22;21725;50.836;4.368;2023-05-07T08:24:14;20.10;99.90
35603;DHT22;21725;50.836;4.368;2023-05-07T08:27:38;20.30;99.90
35603;DHT22;21725;50.836;4.368;2023-05-07T08:30:39;20.50;99.90
35603;DHT22;21725;50.836;4.368;2023-05-07T08:33:42;20.40;99.90
35603;DHT22;21725;50.836;4.368;2023-05-07T08:40:28;20.30;99.90
35603;DHT22;21725;50.836;4.368;2023-05-07T08:43:50;20.40;99.90
35603;DHT22;21725;50.836;4.368;2023-05-07T08:47:07;20.30;99.90
35603;DHT22;21725;50.836;4.368;2023-05-07T08:50:28;20.80;99.90
35603;DHT22;21725;50.836;4.368;2023-05-07T08:53:52;20.50;99.90
35603;DHT22;21725;50.836;4.368;2023-05-07T09:07:58;20.40;99.90
35603;DHT22;21725;50.836;4.368;2023-05-07T09:11:28;20.30;99.90
35603;DHT22;21725;50.836;4.368;2023-05-07T09:14:39;20.50;99.90
35603;DHT22;21725;50.836;4.368;2023-05-07T09:17:50;20.60;99.90
35603;DHT22;21725;50.836;4.368;2023-05-07T09:21:20;20.70;99.90
35603;DHT22;21725;50.836;4.368;2023-05-07T09:28:48;21.00;99.90
35603;DHT22;21725;50.836;4.368;2023-05-07T09:35:28;21.00;99.90
35603;DHT22;21725;50.836;4.368;2023-05-07T09:38:29;20.90;99.90
35603;DHT22;21725;50.836;4.368;2023-05-07T09:41:30;21.10;99.90
35603;DHT22;21725;50.836;4.368;2023-05-07T09:45:02;21.30;99.90
35603;DHT22;21725;50.836;4.368;2023-05-07T09:48:06;21.60;99.70
35603;DHT22;21725;50.836;4.368;2023-05-07T09:51:21;21.30;99.70
35603;DHT22;21725;50.836;4.368;2023-05-07T09:54:25;21.30;99.50
35603;DHT22;21725;50.836;4.368;2023-05-07T09:57:30;21.30;99.80
35603;DHT22;21725;50.836;4.368;2023-05-07T10:00:31;21.30;99.80
35603;DHT22;21725;50.836;4.368;2023-05-07T10:03:33;21.30;99.90
35603;DHT22;21725;50.836;4.368;2023-05-07T10:06:38;21.20;99.90
35603;DHT22;21725;50.836;4.368;2023-05-07T10:09:41;21.30;99.90
35603;DHT22;21725;50.836;4.368;2023-05-07T10:12:45;21.10;99.90
35603;DHT22;21725;50.836;4.368;2023-05-07T10:15:47;21.10;99.90
35603;DHT22;21725;50.836;4.368;2023-05-07T10:18:51;21.00;99.90
35603;DHT22;21725;50.836;4.368;2023-05-07T10:21:58;21.10;99.90
35603;DHT22;21725;50.836;4.368;2023-05-07T10:25:02;21.00;99.90
35603;DHT22;21725;50.836;4.368;2023-05-07T10:28:19;21.00;99.90
35603;DHT22;21725;50.836;4.368;2023-05-07T10:32:07;21.10;99.90
35603;DHT22;21725;50.836;4.368;2023-05-07T10:35:26;21.20;99.90
35603;DHT22;21725;50.836;4.368;2023-05-07T10:38:42;21.40;99.90
35603;DHT22;21725;50.836;4.368;2023-05-07T10:41:51;21.50;99.90
35603;DHT22;21725;50.836;4.368;2023-05-07T10:44:53;21.50;99.90
35603;DHT22;21725;50.836;4.368;2023-05-07T10:48:13;21.50;99.90
35603;DHT22;21725;50.836;4.368;2023-05-07T10:51:22;21.70;99.90
35603;DHT22;21725;50.836;4.368;2023-05-07T10:54:27;21.80;99.90
35603;DHT22;21725;50.836;4.368;2023-05-07T10:57:47;21.80;99.90
35603;DHT22;21725;50.836;4.368;2023-05-07T11:01:08;21.50;99.60
35603;DHT22;21725;50.836;4.368;2023-05-07T11:04:32;21.60;99.50
35603;DHT22;21725;50.836;4.368;2023-05-07T11:08:02;21.50;99.90
35603;DHT22;21725;50.836;4.368;2023-05-07T11:11:08;21.60;99.90
35603;DHT22;21725;50.836;4.368;2023-05-07T11:14:46;21.70;99.90
35603;DHT22;21725;50.836;4.368;2023-05-07T11:17:58;22.00;99.90
35603;DHT22;21725;50.836;4.368;2023-05-07T11:21:40;22.10;99.40
35603;DHT22;21725;50.836;4.368;2023-05-07T11:24:57;22.00;99.00
35603;DHT22;21725;50.836;4.368;2023-05-07T11:28:08;21.80;99.00
35603;DHT22;21725;50.836;4.368;2023-05-07T11:31:13;21.90;99.30
35603;DHT22;21725;50.836;4.368;2023-05-07T11:34:21;21.70;99.40
35603;DHT22;21725;50.836;4.368;2023-05-07T11:37:26;21.50;99.90
35603;DHT22;21725;50.836;4.368;2023-05-07T11:40:28;21.50;99.90
35603;DHT22;21725;50.836;4.368;2023-05-07T11:43:29;21.50;99.90
35603;DHT22;21725;50.836;4.368;2023-05-07T11:46:30;21.70;99.90
35603;DHT22;21725;50.836;4.368;2023-05-07T11:49:31;21.70;99.90
35603;DHT22;21725;50.836;4.368;2023-05-07T11:52:35;21.80;99.90
35603;DHT22;21725;50.836;4.368;2023-05-07T11:55:35;21.90;99.80
35603;DHT22;21725;50.836;4.368;2023-05-07T11:58:38;21.90;99.90
35603;DHT22;21725;50.836;4.368;2023-05-07T12:01:39;22.20;99.90
35603;DHT22;21725;50.836;4.368;2023-05-07T12:04:44;22.30;99.40
35603;DHT22;21725;50.836;4.368;2023-05-07T12:07:45;22.50;99.00
35603;DHT22;21725;50.836;4.368;2023-05-07T12:10:47;22.40;99.70
35603;DHT22;21725;50.836;4.368;2023-05-07T12:13:48;22.60;98.80
35603;DHT22;21725;50.836;4.368;2023-05-07T12:16:49;22.50;99.30
35603;DHT22;21725;50.836;4.368;2023-05-07T12:19:52;22.50;98.80
35603;DHT22;21725;50.836;4.368;2023-05-07T12:22:54;22.40;99.20
35603;DHT22;21725;50.836;4.368;2023-05-07T12:25:55;22.40;99.30
35603;DHT22;21725;50.836;4.368;2023-05-07T12:28:57;22.70;98.30
35603;DHT22;21725;50.836;4.368;2023-05-07T12:31:58;22.70;98.40
35603;DHT22;21725;50.836;4.368;2023-05-07T12:35:02;22.60;98.20
35603;DHT22;21725;50.836;4.368;2023-05-07T12:38:08;22.40;98.50
35603;DHT22;21725;50.836;4.368;2023-05-07T12:41:10;22.20;99.20
35603;DHT22;21725;50.836;4.368;2023-05-07T12:44:15;22.10;99.50
35603;DHT22;21725;50.836;4.368;2023-05-07T12:47:16;22.20;99.20
35603;DHT22;21725;50.836;4.368;2023-05-07T12:50:16;22.30;99.10
35603;DHT22;21725;50.836;4.368;2023-05-07T12:53:21;22.60;98.80
35603;DHT22;21725;50.836;4.368;2023-05-07T12:56:23;22.90;98.40
35603;DHT22;21725;50.836;4.368;2023-05-07T12:59:33;23.00;98.50
35603;DHT22;21725;50.836;4.368;2023-05-07T13:02:41;23.00;98.20
35603;DHT22;21725;50.836;4.368;2023-05-07T13:05:42;23.20;97.20
35603;DHT22;21725;50.836;4.368;2023-05-07T13:08:45;23.10;97.60
35603;DHT22;21725;50.836;4.368;2023-05-07T13:11:51;23.10;97.50
35603;DHT22;21725;50.836;4.368;2023-05-07T13:14:57;22.90;97.50
35603;DHT22;21725;50.836;4.368;2023-05-07T13:18:00;22.80;97.70
35603;DHT22;21725;50.836;4.368;2023-05-07T13:21:01;22.60;98.10
35603;DHT22;21725;50.836;4.368;2023-05-07T13:24:02;22.70;97.80
35603;DHT22;21725;50.836;4.368;2023-05-07T13:27:03;22.70;97.70
35603;DHT22;21725;50.836;4.368;2023-05-07T13:30:05;22.60;98.20
35603;DHT22;21725;50.836;4.368;2023-05-07T13:33:08;22.70;98.00
35603;DHT22;21725;50.836;4.368;2023-05-07T13:36:12;22.50;98.20
35603;DHT22;21725;50.836;4.368;2023-05-07T13:39:13;22.50;98.50
35603;DHT22;21725;50.836;4.368;2023-05-07T13:42:17;22.40;98.50
35603;DHT22;21725;50.836;4.368;2023-05-07T13:45:18;22.40;98.70
35603;DHT22;21725;50.836;4.368;2023-05-07T13:48:25;22.30;98.40
35603;DHT22;21725;50.836;4.368;2023-05-07T13:51:28;22.40;98.60
35603;DHT22;21725;50.836;4.368;2023-05-07T13:54:32;22.30;98.90
35603;DHT22;21725;50.836;4.368;2023-05-07T13:57:35;22.20;99.30
35603;DHT22;21725;50.836;4.368;2023-05-07T14:00:36;22.30;99.00
35603;DHT22;21725;50.836;4.368;2023-05-07T14:03:40;22.50;99.10
35603;DHT22;21725;50.836;4.368;2023-05-07T14:06:44;22.60;98.80
35603;DHT22;21725;50.836;4.368;2023-05-07T14:09:45;22.50;98.70
35603;DHT22;21725;50.836;4.368;2023-05-07T14:12:46;22.50;98.50
35603;DHT22;21725;50.836;4.368;2023-05-07T14:15:50;22.40;98.70
35603;DHT22;21725;50.836;4.368;2023-05-07T14:19:00;22.60;98.80
35603;DHT22;21725;50.836;4.368;2023-05-07T14:22:00;22.60;98.80
35603;DHT22;21725;50.836;4.368;2023-05-07T14:25:04;22.60;98.50
35603;DHT22;21725;50.836;4.368;2023-05-07T14:28:05;22.60;98.40
35603;DHT22;21725;50.836;4.368;2023-05-07T14:31:06;22.40;98.20
35603;DHT22;21725;50.836;4.368;2023-05-07T14:34:07;22.50;98.40
35603;DHT22;21725;50.836;4.368;2023-05-07T14:37:15;22.50;98.20
35603;DHT22;21725;50.836;4.368;2023-05-07T14:40:16;22.40;98.80
35603;DHT22;21725;50.836;4.368;2023-05-07T14:43:16;22.40;98.50
35603;DHT22;21725;50.836;4.368;2023-05-07T14:46:21;22.50;98.30
35603;DHT22;21725;50.836;4.368;2023-05-07T14:49:27;22.50;98.50
35603;DHT22;21725;50.836;4.368;2023-05-07T14:52:28;22.60;98.50
35603;DHT22;21725;50.836;4.368;2023-05-07T14:55:29;22.80;98.00
35603;DHT22;21725;50.836;4.368;2023-05-07T14:58:30;22.80;98.30
35603;DHT22;21725;50.836;4.368;2023-05-07T15:01:31;22.80;98.00
35603;DHT22;21725;50.836;4.368;2023-05-07T15:04:32;22.60;98.10
35603;DHT22;21725;50.836;4.368;2023-05-07T15:07:33;22.30;98.60
35603;DHT22;21725;50.836;4.368;2023-05-07T15:10:36;22.40;98.70
35603;DHT22;21725;50.836;4.368;2023-05-07T15:13:42;22.50;98.40
35603;DHT22;21725;50.836;4.368;2023-05-07T15:16:45;22.50;98.30
35603;DHT22;21725;50.836;4.368;2023-05-07T15:19:46;22.30;98.60
35603;DHT22;21725;50.836;4.368;2023-05-07T15:22:54;22.40;98.60
35603;DHT22;21725;50.836;4.368;2023-05-07T15:26:05;22.30;98.80
35603;DHT22;21725;50.836;4.368;2023-05-07T15:29:10;22.10;98.90
35603;DHT22;21725;50.836;4.368;2023-05-07T15:32:14;22.00;99.50
35603;DHT22;21725;50.836;4.368;2023-05-07T15:35:17;22.00;99.90
35603;DHT22;21725;50.836;4.368;2023-05-07T15:38:22;21.80;99.90
35603;DHT22;21725;50.836;4.368;2023-05-07T15:41:25;21.70;99.90
35603;DHT22;21725;50.836;4.368;2023-05-07T15:44:29;21.70;99.90
35603;DHT22;21725;50.836;4.368;2023-05-07T15:47:52;21.70;99.90
35603;DHT22;21725;50.836;4.368;2023-05-07T15:51:01;21.90;99.90
35603;DHT22;21725;50.836;4.368;2023-05-07T15:57:50;21.90;99.90
35603;DHT22;21725;50.836;4.368;2023-05-07T16:05:17;22.10;99.80
35603;DHT22;21725;50.836;4.368;2023-05-07T16:08:21;21.90;99.60
35603;DHT22;21725;50.836;4.368;2023-05-07T16:11:42;22.00;99.90
35603;DHT22;21725;50.836;4.368;2023-05-07T16:15:42;21.80;99.90
35603;DHT22;21725;50.836;4.368;2023-05-07T16:19:26;21.90;99.90
35603;DHT22;21725;50.836;4.368;2023-05-07T16:51:28;21.50;99.90
35603;DHT22;21725;50.836;4.368;2023-05-07T16:54:57;21.40;99.90
35603;DHT22;21725;50.836;4.368;2023-05-07T16:58:34;21.40;99.90
35603;DHT22;21725;50.836;4.368;2023-05-07T17:06:00;21.20;99.90
35603;DHT22;21725;50.836;4.368;2023-05-07T17:10:01;21.10;99.90
35603;DHT22;21725;50.836;4.368;2023-05-07T17:21:38;21.40;99.90
35603;DHT22;21725;50.836;4.368;2023-05-07T17:25:08;21.60;99.90
35603;DHT22;21725;50.836;4.368;2023-05-07T17:36:15;21.70;99.90
35603;DHT22;21725;50.836;4.368;2023-05-07T17:39:39;21.50;99.90
35603;DHT22;21725;50.836;4.368;2023-05-07T17:42:53;21.50;99.90
35603;DHT22;21725;50.836;4.368;2023-05-07T17:46:30;21.50;99.90
35603;DHT22;21725;50.836;4.368;2023-05-07T17:50:02;21.50;99.90
35603;DHT22;21725;50.836;4.368;2023-05-07T17:53:33;21.30;99.90
35603;DHT22;21725;50.836;4.368;2023-05-07T17:56:50;21.30;99.90
35603;DHT22;21725;50.836;4.368;2023-05-07T18:00:24;21.40;99.90
35603;DHT22;21725;50.836;4.368;2023-05-07T18:03:47;21.30;99.90
35603;DHT22;21725;50.836;4.368;2023-05-07T18:10:23;21.50;99.90
35603;DHT22;21725;50.836;4.368;2023-05-07T18:13:24;21.10;99.90
35603;DHT22;21725;50.836;4.368;2023-05-07T18:16:26;21.10;99.90
35603;DHT22;21725;50.836;4.368;2023-05-07T18:19:30;21.10;99.90
35603;DHT22;21725;50.836;4.368;2023-05-07T18:25:53;21.20;99.90
35603;DHT22;21725;50.836;4.368;2023-05-07T18:28:57;21.00;99.90
35603;DHT22;21725;50.836;4.368;2023-05-07T18:32:20;20.80;99.90
35603;DHT22;21725;50.836;4.368;2023-05-07T18:35:21;20.90;99.90
35603;DHT22;21725;50.836;4.368;2023-05-07T18:38:24;20.80;99.90
35603;DHT22;21725;50.836;4.368;2023-05-07T18:41:37;20.70;99.90
35603;DHT22;21725;50.836;4.368;2023-05-07T18:44:40;20.60;99.90
35603;DHT22;21725;50.836;4.368;2023-05-07T18:47:41;20.80;99.90
35603;DHT22;21725;50.836;4.368;2023-05-07T18:50:43;20.80;99.90
35603;DHT22;21725;50.836;4.368;2023-05-07T18:53:43;20.60;99.90
35603;DHT22;21725;50.836;4.368;2023-05-07T18:56:44;20.60;99.90
35603;DHT22;21725;50.836;4.368;2023-05-07T18:59:45;20.50;99.90
35603;DHT22;21725;50.836;4.368;2023-05-07T19:02:46;20.50;99.90
35603;DHT22;21725;50.836;4.368;2023-05-07T19:05:47;20.60;99.90
35603;DHT22;21725;50.836;4.368;2023-05-07T19:08:47;20.70;99.90
35603;DHT22;21725;50.836;4.368;2023-05-07T19:11:48;20.60;99.90
35603;DHT22;21725;50.836;4.368;2023-05-07T19:14:49;20.50;99.90
35603;DHT22;21725;50.836;4.368;2023-05-07T19:17:50;20.60;99.90
35603;DHT22;21725;50.836;4.368;2023-05-07T19:20:54;20.70;99.90
35603;DHT22;21725;50.836;4.368;2023-05-07T19:23:55;20.70;99.90
35603;DHT22;21725;50.836;4.368;2023-05-07T19:26:56;20.60;99.90
35603;DHT22;21725;50.836;4.368;2023-05-07T19:29:57;20.60;99.90
35603;DHT22;21725;50.836;4.368;2023-05-07T19:32:58;20.60;99.90
35603;DHT22;21725;50.836;4.368;2023-05-07T19:36:00;20.50;99.90
35603;DHT22;21725;50.836;4.368;2023-05-07T19:39:01;20.60;99.90
35603;DHT22;21725;50.836;4.368;2023-05-07T19:42:02;20.40;99.90
35603;DHT22;21725;50.836;4.368;2023-05-07T19:45:03;20.90;99.90
35603;DHT22;21725;50.836;4.368;2023-05-07T19:48:04;20.40;99.90
35603;DHT22;21725;50.836;4.368;2023-05-07T19:51:05;20.60;99.90
35603;DHT22;21725;50.836;4.368;2023-05-07T19:54:06;20.40;99.90
35603;DHT22;21725;50.836;4.368;2023-05-07T19:57:07;20.40;99.90
35603;DHT22;21725;50.836;4.368;2023-05-07T20:00:08;20.40;99.90
35603;DHT22;21725;50.836;4.368;2023-05-07T20:03:09;20.40;99.90
35603;DHT22;21725;50.836;4.368;2023-05-07T20:06:20;20.40;99.90
35603;DHT22;21725;50.836;4.368;2023-05-07T20:09:22;20.20;99.90
35603;DHT22;21725;50.836;4.368;2023-05-07T20:12:23;20.50;99.90
35603;DHT22;21725;50.836;4.368;2023-05-07T20:15:24;20.50;99.90
35603;DHT22;21725;50.836;4.368;2023-05-07T20:18:26;20.60;99.90
35603;DHT22;21725;50.836;4.368;2023-05-07T20:21:27;20.70;99.90
35603;DHT22;21725;50.836;4.368;2023-05-07T20:24:28;20.80;99.90
35603;DHT22;21725;50.836;4.368;2023-05-07T20:27:29;20.80;99.90
35603;DHT22;21725;50.836;4.368;2023-05-07T20:30:30;20.70;99.90
35603;DHT22;21725;50.836;4.368;2023-05-07T20:37:24;20.80;99.90
35603;DHT22;21725;50.836;4.368;2023-05-07T20:40:28;20.80;99.90
35603;DHT22;21725;50.836;4.368;2023-05-07T20:43:33;20.80;99.90
35603;DHT22;21725;50.836;4.368;2023-05-07T20:46:34;20.70;99.90
35603;DHT22;21725;50.836;4.368;2023-05-07T20:49:36;20.60;99.90
35603;DHT22;21725;50.836;4.368;2023-05-07T20:52:36;20.60;99.90
35603;DHT22;21725;50.836;4.368;2023-05-07T20:55:37;20.40;99.90
35603;DHT22;21725;50.836;4.368;2023-05-07T20:58:38;20.70;99.90
35603;DHT22;21725;50.836;4.368;2023-05-07T21:01:39;20.70;99.90
35603;DHT22;21725;50.836;4.368;2023-05-07T21:04:42;20.50;99.90
35603;DHT22;21725;50.836;4.368;2023-05-07T21:07:42;20.40;99.90
35603;DHT22;21725;50.836;4.368;2023-05-07T21:10:43;20.30;99.90
35603;DHT22;21725;50.836;4.368;2023-05-07T21:13:44;20.40;99.90
35603;DHT22;21725;50.836;4.368;2023-05-07T21:16:47;20.40;99.90
35603;DHT22;21725;50.836;4.368;2023-05-07T21:19:48;20.40;99.90
35603;DHT22;21725;50.836;4.368;2023-05-07T21:22:49;20.40;99.90
35603;DHT22;21725;50.836;4.368;2023-05-07T21:25:50;20.30;99.90
35603;DHT22;21725;50.836;4.368;2023-05-07T21:28:51;20.40;99.90
35603;DHT22;21725;50.836;4.368;2023-05-07T21:31:52;20.40;99.90
35603;DHT22;21725;50.836;4.368;2023-05-07T21:34:52;20.50;99.90
35603;DHT22;21725;50.836;4.368;2023-05-07T21:37:53;20.50;99.90
35603;DHT22;21725;50.836;4.368;2023-05-07T21:40:54;20.50;99.90
35603;DHT22;21725;50.836;4.368;2023-05-07T21:43:56;20.30;99.90
35603;DHT22;21725;50.836;4.368;2023-05-07T21:46:56;20.20;99.90
35603;DHT22;21725;50.836;4.368;2023-05-07T21:49:57;20.20;99.90
35603;DHT22;21725;50.836;4.368;2023-05-07T21:52:58;20.10;99.90
35603;DHT22;21725;50.836;4.368;2023-05-07T21:55:59;20.10;99.90
35603;DHT22;21725;50.836;4.368;2023-05-07T21:59:01;20.00;99.90
35603;DHT22;21725;50.836;4.368;2023-05-07T22:02:03;19.90;99.90
35603;DHT22;21725;50.836;4.368;2023-05-07T22:05:03;20.00;99.90
35603;DHT22;21725;50.836;4.368;2023-05-07T22:08:07;20.00;99.90
35603;DHT22;21725;50.836;4.368;2023-05-07T22:11:15;19.90;99.90
35603;DHT22;21725;50.836;4.368;2023-05-07T22:14:18;20.00;99.90
35603;DHT22;21725;50.836;4.368;2023-05-07T22:17:24;20.10;99.90
35603;DHT22;21725;50.836;4.368;2023-05-07T22:20:25;20.10;99.90
35603;DHT22;21725;50.836;4.368;2023-05-07T22:23:26;20.00;99.90
35603;DHT22;21725;50.836;4.368;2023-05-07T22:26:27;19.90;99.90
35603;DHT22;21725;50.836;4.368;2023-05-07T22:29:28;20.10;99.90
35603;DHT22;21725;50.836;4.368;2023-05-07T22:32:31;20.10;99.90
35603;DHT22;21725;50.836;4.368;2023-05-07T22:35:34;20.10;99.90
35603;DHT22;21725;50.836;4.368;2023-05-07T22:38:39;20.00;99.90
35603;DHT22;21725;50.836;4.368;2023-05-07T22:41:40;20.00;99.90
35603;DHT22;21725;50.836;4.368;2023-05-07T22:44:41;19.90;99.90
35603;DHT22;21725;50.836;4.368;2023-05-07T22:47:42;19.90;99.90
35603;DHT22;21725;50.836;4.368;2023-05-07T22:50:43;19.90;99.90
35603;DHT22;21725;50.836;4.368;2023-05-07T22:53:44;19.90;99.90
35603;DHT22;21725;50.836;4.368;2023-05-07T22:56:45;19.90;99.90
35603;DHT22;21725;50.836;4.368;2023-05-07T22:59:54;19.60;99.90
35603;DHT22;21725;50.836;4.368;2023-05-07T23:02:56;19.70;99.90
35603;DHT22;21725;50.836;4.368;2023-05-07T23:05:59;19.60;99.90
35603;DHT22;21725;50.836;4.368;2023-05-07T23:09:00;19.60;99.90
35603;DHT22;21725;50.836;4.368;2023-05-07T23:12:01;19.60;99.90
35603;DHT22;21725;50.836;4.368;2023-05-07T23:15:09;19.50;99.90
35603;DHT22;21725;50.836;4.368;2023-05-07T23:18:10;19.40;99.90
35603;DHT22;21725;50.836;4.368;2023-05-07T23:21:14;19.10;99.90
35603;DHT22;21725;50.836;4.368;2023-05-07T23:24:16;19.10;99.90
35603;DHT22;21725;50.836;4.368;2023-05-07T23:27:16;19.10;99.90
35603;DHT22;21725;50.836;4.368;2023-05-07T23:30:18;19.20;99.90
35603;DHT22;21725;50.836;4.368;2023-05-07T23:33:21;19.30;99.90